Aviation Digital Data Service (ADDS)

Output produced by METARs form (1201 UTC 24 February 2018)
found at http://www.aviationweather.gov/adds/metars/
 
TAF COR SYCJ 241100Z 2412/2512 08014KT 9999 BKN018 SCT040 
     TEMPO 2415/2418 6000 SHRA BKN016 
     BECMG 2422/2500 05006KT 9999 SCT016 
     BECMG 2505/2507 VRB02KT 4000 BR SCT012 SCT038
       
TAF SYKM 241100Z 2412/2423 06006KT 9999 BKN015 SCT038 
     TEMPO 2416/2422 5000 SHRA BKN014 
       
TAF SYLT 241100Z 2412/2423 06012KT 6000 SHRA BKN016 BKN040 
     BECMG 2418/2420 05010KT 9999 BKN018